Annapolis, IN

11:31 AM EDT on October 01, 2014 (GMT -0400)
South Vermillion High School | Change Station
CLOSE
Current Station
Personal Weather Station
Location: Clinton, IN
Elevation: 518 ft
Nearby Weather Stations

Elev 518 ft 39.69 °N, 87.41 °W | Updated 14 minutes ago

Clear
Clear
66.6 °F
Feels Like 66.6 °F
N
1.0
Wind Variable Wind from ENE
Gusts 5.0 mph

Today
High -- | Low -- °F
--% Chance of Precip.
Yesterday
High -- | Low -- °F
Precip. -- in
7:45 AM 7:31 PM
Waxing Crescent, 48% visible
Pressure 30.00 in
Visibility 10.0 miles
Clouds Clear
Dew Point 58 °F
Humidity 73%
Rainfall 0.00 in
Snow Depth Not available.
UV 4 out of 12
Pollen 3.90 out of 12
Air Quality Not available.
Flu Activity Not available.
METAR KPRG 011515Z AUTO 11004KT 10SM CLR 19/13 A3000 RMK AO2 LTG DSNT W T01900134

More Conditions Fewer Conditions

Pressure 30.00 in
Visibility 10.0 miles
Clouds Clear
Dew Point 58 °F
Humidity 73%
Rainfall 0.00 in
Snow Depth Not available.
UV 4 out of 12
Pollen 3.90 out of 12
Air Quality Not available.
Flu Activity Not available.
METAR KPRG 011515Z AUTO 11004KT 10SM CLR 19/13 A3000 RMK AO2 LTG DSNT W T01900134

More Conditions Fewer Conditions

10-Day Weather Forecast

Almanac

Astronomy

Oct. 01, 2014 Rise Set
Actual Time 7:45 AM EDT 7:31 PM EDT
Civil Twilight 7:18 AM EDT 7:58 PM EDT
Nautical Twilight 6:47 AM EDT 8:29 PM EDT
Astronomical Twilight 6:15 AM EDT 9:01 PM EDT
Moon 2:45 PM EDT 12:03 AM EDT
Length of Visible Light 12h 39m
Length of Day
11h 46m
Tomorrow will be 2m 35s shorter.
Waxing Crescent, 48% of the Moon is Illuminated
Today
Waxing Crescent
Oct 1
First Quarter
Oct 8
Full
Oct 15
Last Quarter
Oct 23
New

Today's Extremes

State Highs State Lows

Community

WunderPhotos

Upload Photos

1,757,967 photos uploaded!

Nearby

Snow Depth

Station Depth Elevation
No new snow has been reported.

Earthquake Activity

City Distance Mag. Time & Date
No recent earthquake activity has been reported nearby.
Minimum magnitude displayed is 2.5.

Coastal Water Temperatures

Place Temperature
No Stations Reporting

Nearby Weather Stations